메인 페이지
METAR-TAF:

METAR-TAF

공항 :

워싱턴 덜레스 국제공항

워싱톤, 버지니아, 미국

위도: 38-56-05N, 경도: 077-26-51W, 고도: 95m

현재 날씨관측

예보는 21분 전, 22:52시(UTC)에 발표되었습니다.
남남서12kt, 순간 최대 풍속 19kt
온도 27°C
습도 32%
기압 1009 hPa
시정: 16.1km
고도 10000ft 상공 구름 조금
고도 16000ft 상공 구름 보통
고도 25000ft 상공 구름 많음

METAR: KIAD 232252Z 20012G19KT 10SM FEW100 SCT160 BKN250 27/09 A2980 RMK AO2 SLP091 T02720094

시각: 19:13 (23:13 UTC)

예보

예보는 2 시간 42분 전, 20:31시(UTC)에 발표되었습니다.
예보 대상 시간: 23일 21시부터 24일 24시까지 (UTC)
8kt
시정: 10km
고도 15000ft 상공 구름 조금
고도 25000ft 상공 구름 보통
24일 0400시부터 (UTC)
남서7kt
시정: 10km
고도 10000ft 상공 구름 많음
24일 0700시부터 (UTC)
6kt
시정: 10km
고도 5000ft 상공 구름 많음
24일 1300시부터 (UTC)
북서8kt, 순간 최대 풍속 18kt
시정: 10km
고도 20000ft 상공 구름 많음

TAF: KIAD 232031Z 2321/2424 19008KT P6SM FEW150 SCT250 FM240400 23007KT P6SM BKN100 FM240700 27006KT P6SM BKN050 FM241300 31008G18KT P6SM BKN200

4,000개 이상의 공항 관측 자료 및 예보 (METAR 및 TAF 보고).

지도상에서 검색 가능한 기상관측소가 노란 점과 빨간 점으로 표시되어 있습니다.

기상관측소 명을 보려면 표시 위로 마우스를 이동하세요.

날씨 관측과 예보를 보려면 클릭하세요.

지도 변경 : 확대하려면 엑스 표시가 있는 녹색 버튼, 축소하려면 빼기 표시가 있는 녹색 버튼, 다음 페이지의 지도를 보려면 녹색 화살표를 클릭하세요.


METAR-TAF: